Time;durP1;ratioP1;P1;durP2;ratioP2;P2;SDS_P1;SDS_P2;PMS_P1;PMS_P2;Temp;Humidity;BMP_temperature;BMP_pressure;BME280_temperature;BME280_humidity;BME280_pressure;Samples;Min_cycle;Max_cycle;Signal;HPM_P1;HPM_P2
2021/05/16 00:02:11;;;;;;;8.05;3.58;;;;;;;6.83;89.18;98163.44;5012457;28;20038;-64
2021/05/16 00:04:36;;;;;;;7.32;3.33;;;;;;;6.82;89.24;98167.16;5012935;28;20026;-64
2021/05/16 00:07:02;;;;;;;7.40;3.42;;;;;;;6.81;89.42;98176.19;5012462;28;20045;-63
2021/05/16 00:09:29;;;;;;;6.72;3.42;;;;;;;6.74;89.67;98172.88;5012888;28;20073;-63
2021/05/16 00:11:54;;;;;;;10.90;3.83;;;;;;;6.69;89.77;98168.31;5012390;28;20512;-63
2021/05/16 00:14:20;;;;;;;6.03;3.42;;;;;;;6.76;89.68;98163.59;5013204;28;20030;-64
2021/05/16 00:16:45;;;;;;;6.28;3.70;;;;;;;6.76;89.38;98165.47;5016499;28;20095;-64
2021/05/16 00:19:10;;;;;;;6.22;4.10;;;;;;;6.72;89.92;98157.16;5017232;28;20439;-65
2021/05/16 00:21:36;;;;;;;10.45;3.88;;;;;;;6.76;90.06;98152.16;5016570;28;20386;-64
2021/05/16 00:24:01;;;;;;;12.30;4.45;;;;;;;6.73;90.17;98148.13;5017053;28;20133;-64
2021/05/16 00:26:27;;;;;;;9.23;4.32;;;;;;;6.78;89.97;98150.03;4998748;28;20042;-64
2021/05/16 00:28:52;;;;;;;10.45;4.82;;;;;;;6.77;89.86;98143.13;5016932;28;20034;-64
2021/05/16 00:31:18;;;;;;;14.18;4.63;;;;;;;6.70;90.41;98137.94;5016311;28;20034;-65
2021/05/16 00:33:43;;;;;;;9.25;4.55;;;;;;;6.71;90.37;98139.56;5016937;28;20034;-64
2021/05/16 00:36:08;;;;;;;13.20;4.80;;;;;;;6.68;90.19;98140.84;5016158;28;20034;-64
2021/05/16 00:38:34;;;;;;;11.65;4.50;;;;;;;6.68;90.25;98148.84;5016803;28;20065;-64
2021/05/16 00:40:59;;;;;;;11.70;4.75;;;;;;;6.73;90.65;98137.47;5016311;28;20034;-64
2021/05/16 00:43:25;;;;;;;12.50;5.32;;;;;;;6.70;90.18;98149.41;5016548;28;20384;-64
2021/05/16 00:45:50;;;;;;;11.93;4.72;;;;;;;6.72;90.54;98146.50;5016069;28;20042;-64
2021/05/16 00:48:16;;;;;;;12.18;5.97;;;;;;;6.80;90.37;98139.97;5016541;28;20026;-63
2021/05/16 00:50:46;;;;;;;12.10;4.65;;;;;;;6.80;90.42;98142.63;5015750;28;20042;-64
2021/05/16 00:53:12;;;;;;;;;;;;;;;6.82;90.51;98151.97;4999132;28;20391;-64
2021/05/16 00:55:37;;;;;;;14.60;4.75;;;;;;;6.75;90.37;98143.34;4998321;28;20064;-64
2021/05/16 00:58:03;;;;;;;12.18;5.20;;;;;;;6.86;90.46;98145.13;5016361;28;20033;-64
2021/05/16 01:00:32;;;;;;;10.25;5.32;;;;;;;6.86;90.60;98152.28;5015830;28;20128;-64
2021/05/16 01:02:58;;;;;;;15.93;5.22;;;;;;;6.85;90.58;98156.00;5016380;28;20380;-64
2021/05/16 01:05:24;;;;;;;10.27;4.95;;;;;;;6.82;90.78;98157.31;4998117;28;20033;-64
2021/05/16 01:07:49;;;;;;;9.00;4.45;;;;;;;6.82;90.88;98157.31;5016010;28;20032;-64
2021/05/16 01:10:15;;;;;;;12.50;4.63;;;;;;;6.87;90.49;98151.25;5015566;28;20041;-64
2021/05/16 01:12:47;;;;;;;10.68;4.90;;;;;;;6.90;90.43;98158.75;5015947;28;20034;-64
2021/05/16 01:15:17;;;;;;;12.32;5.00;;;;;;;6.98;90.36;98163.66;5015511;28;20025;-64
2021/05/16 01:17:43;;;;;;;;;;;;;;;7.08;89.93;98161.13;5016365;28;20025;-64
2021/05/16 01:20:10;;;;;;;12.95;5.10;;;;;;;7.03;90.29;98160.25;5015171;28;20463;-64
2021/05/16 01:22:35;;;;;;;9.52;4.80;;;;;;;7.07;89.88;98159.53;5015909;28;20030;-64
2021/05/16 01:25:02;;;;;;;14.30;5.15;;;;;;;7.16;90.16;98161.75;4997809;28;20088;-64
2021/05/16 01:27:27;;;;;;;12.20;4.57;;;;;;;7.33;89.94;98159.84;5014450;28;20060;-63
2021/05/16 01:29:53;;;;;;;13.15;4.55;;;;;;;7.35;89.94;98150.56;5015609;28;20469;-63
2021/05/16 01:32:21;;;;;;;8.23;4.82;;;;;;;7.31;90.44;98152.13;5015087;28;20034;-64
2021/05/16 01:34:47;;;;;;;11.50;5.05;;;;;;;7.41;90.05;98150.63;5015477;28;20550;-64
2021/05/16 01:37:13;;;;;;;10.25;5.38;;;;;;;7.40;89.98;98149.81;5013835;28;20029;-64
2021/05/16 01:39:39;;;;;;;12.23;5.78;;;;;;;7.41;90.39;98154.09;5015488;28;20207;-64
2021/05/16 01:42:05;;;;;;;12.25;4.90;;;;;;;7.47;90.01;98146.97;5014912;28;20089;-64
2021/05/16 01:44:31;;;;;;;10.18;5.15;;;;;;;7.44;90.01;98142.94;4997697;28;20108;-64
2021/05/16 01:47:03;;;;;;;12.18;5.60;;;;;;;7.39;89.99;98145.56;5014695;28;20061;-64
2021/05/16 01:49:40;;;;;;;17.23;5.85;;;;;;;7.35;90.17;98141.75;5015189;28;20030;-64
2021/05/16 01:52:06;;;;;;;16.25;5.45;;;;;;;7.23;90.43;98146.41;5014802;28;20038;-64
2021/05/16 01:54:31;;;;;;;11.88;5.43;;;;;;;7.15;90.49;98141.50;5015091;28;20498;-64
2021/05/16 01:56:57;;;;;;;13.52;5.60;;;;;;;7.06;90.83;98157.94;4996977;28;20034;-65
2021/05/16 01:59:23;;;;;;;15.68;6.35;;;;;;;7.08;91.19;98139.81;4997394;28;20033;-64
2021/05/16 02:01:48;;;;;;;15.90;5.97;;;;;;;7.06;90.87;98143.78;5014424;28;20057;-64
2021/05/16 02:04:14;;;;;;;12.82;5.45;;;;;;;7.01;90.96;98144.50;5013676;28;20033;-64
2021/05/16 02:06:39;;;;;;;15.05;6.18;;;;;;;7.09;90.48;98141.44;5014248;28;20457;-65
2021/05/16 02:09:05;;;;;;;15.18;6.03;;;;;;;7.08;90.48;98145.13;5014470;28;20048;-64
2021/05/16 02:11:30;;;;;;;12.57;5.57;;;;;;;7.08;90.39;98141.69;5014193;28;20046;-64
2021/05/16 02:13:56;;;;;;;14.38;6.32;;;;;;;7.23;90.18;98143.75;4996990;28;20041;-64
2021/05/16 02:16:21;;;;;;;12.63;6.20;;;;;;;7.13;90.47;98137.22;5014186;28;20046;-64
2021/05/16 02:18:47;;;;;;;15.80;6.40;;;;;;;7.13;90.39;98142.53;5014583;28;20045;-64
2021/05/16 02:21:12;;;;;;;14.38;6.80;;;;;;;7.06;90.83;98136.63;5014115;28;20048;-64
2021/05/16 02:23:39;;;;;;;15.25;5.72;;;;;;;7.10;90.36;98135.06;5013245;28;20033;-64
2021/05/16 02:26:04;;;;;;;16.48;6.85;;;;;;;7.19;90.32;98131.94;5013789;28;20041;-64
2021/05/16 02:28:30;;;;;;;13.05;6.35;;;;;;;7.11;90.43;98122.53;5014669;28;20096;-64
2021/05/16 02:30:55;;;;;;;12.90;5.25;;;;;;;7.10;90.04;98119.06;5014176;28;20600;-64
2021/05/16 02:33:20;;;;;;;21.15;7.00;;;;;;;7.10;90.28;98126.25;4996785;28;20084;-64
2021/05/16 02:35:46;;;;;;;13.93;6.68;;;;;;;7.05;90.34;98121.66;5013737;28;20096;-64
2021/05/16 02:38:11;;;;;;;12.52;6.50;;;;;;;7.00;90.28;98123.47;5014112;28;20022;-64
2021/05/16 02:40:37;;;;;;;9.88;6.20;;;;;;;6.97;90.85;98132.75;5013656;28;20042;-64
2021/05/16 02:43:02;;;;;;;15.68;5.93;;;;;;;6.86;91.08;98133.66;5014426;28;20026;-64
2021/05/16 02:45:28;;;;;;;19.63;6.72;;;;;;;6.94;91.23;98132.41;4996089;28;20468;-64
2021/05/16 02:47:53;;;;;;;15.32;5.28;;;;;;;6.95;90.80;98129.53;5014159;28;20352;-64
2021/05/16 02:50:19;;;;;;;15.75;6.63;;;;;;;6.82;91.12;98129.88;5013348;28;20364;-65
2021/05/16 02:52:44;;;;;;;24.33;7.35;;;;;;;6.78;91.55;98134.88;5029320;28;20033;-65
2021/05/16 02:55:10;;;;;;;14.50;6.65;;;;;;;6.68;90.93;98135.53;5013380;28;20377;-64
2021/05/16 02:57:35;;;;;;;15.38;6.68;;;;;;;6.68;91.38;98140.84;5013814;28;20181;-64
2021/05/16 03:00:02;;;;;;;18.27;6.22;;;;;;;6.68;91.93;98151.50;5013271;28;20064;-64
2021/05/16 03:02:27;;;;;;;13.35;7.10;;;;;;;6.71;92.22;98150.19;5013751;28;20457;-64
2021/05/16 03:04:53;;;;;;;15.65;6.47;;;;;;;6.79;91.74;98143.66;5013763;28;20068;-64
2021/05/16 03:07:18;;;;;;;15.45;6.30;;;;;;;6.89;91.58;98144.63;5013210;28;20030;-64
2021/05/16 03:09:44;;;;;;;16.30;6.60;;;;;;;6.95;91.44;98137.50;5013457;28;20069;-64
2021/05/16 03:12:09;;;;;;;15.30;6.43;;;;;;;6.91;91.40;98139.03;4995490;28;20092;-64
2021/05/16 03:14:35;;;;;;;13.60;6.18;;;;;;;6.98;91.31;98139.69;5013740;28;20034;-64
2021/05/16 03:17:01;;;;;;;12.73;7.18;;;;;;;7.01;91.64;98133.84;5012056;28;20042;-64
2021/05/16 03:19:26;;;;;;;12.65;6.03;;;;;;;7.09;91.45;98136.13;5013631;28;20426;-64
2021/05/16 03:21:52;;;;;;;14.23;6.00;;;;;;;7.17;91.05;98126.88;5013086;28;20053;-64
2021/05/16 03:24:17;;;;;;;16.98;6.28;;;;;;;7.17;90.96;98136.75;5013299;28;20026;-64
2021/05/16 03:26:43;;;;;;;14.55;5.70;;;;;;;7.18;91.37;98128.47;5013019;28;20109;-64
2021/05/16 03:29:09;;;;;;;15.60;5.50;;;;;;;7.22;91.03;98134.16;5013494;28;20030;-65
2021/05/16 03:31:34;;;;;;;14.43;6.35;;;;;;;7.29;90.60;98132.09;5012791;28;20034;-64
2021/05/16 03:34:00;;;;;;;12.95;5.93;;;;;;;7.26;91.19;98127.25;4995669;28;20492;-64
2021/05/16 03:36:26;;;;;;;13.02;5.30;;;;;;;7.34;90.95;98129.50;4995230;28;20038;-64
2021/05/16 03:38:51;;;;;;;18.50;6.18;;;;;;;7.25;90.77;98133.66;5028321;28;20465;-64
2021/05/16 03:41:16;;;;;;;14.43;6.22;;;;;;;7.26;90.65;98129.91;5012687;28;20034;-64
2021/05/16 03:43:42;;;;;;;15.27;5.75;;;;;;;7.29;90.51;98124.13;5013043;28;20018;-64
2021/05/16 03:46:07;;;;;;;14.13;5.70;;;;;;;7.34;90.27;98122.31;5012704;28;20041;-64
2021/05/16 03:48:33;;;;;;;10.55;5.30;;;;;;;7.41;89.63;98118.63;5013112;28;20449;-64
2021/05/16 03:50:58;;;;;;;14.35;5.70;;;;;;;7.31;89.86;98127.31;5012080;28;20049;-64
2021/05/16 03:53:24;;;;;;;15.75;6.18;;;;;;;7.40;89.56;98125.03;5013019;28;20519;-64
2021/05/16 03:55:49;;;;;;;17.10;6.35;;;;;;;7.32;89.66;98126.28;5012732;28;20381;-64
2021/05/16 03:58:15;;;;;;;18.90;5.90;;;;;;;7.25;89.93;98129.13;5013201;28;20388;-64
2021/05/16 04:00:40;;;;;;;12.32;6.15;;;;;;;7.27;90.28;98126.22;5027885;28;20457;-64
2021/05/16 04:03:05;;;;;;;14.40;6.20;;;;;;;7.36;89.40;98124.69;5013018;28;20034;-64
2021/05/16 04:05:31;;;;;;;17.08;6.40;;;;;;;7.26;89.82;98120.09;5012452;28;20047;-64
2021/05/16 04:07:56;;;;;;;16.50;6.30;;;;;;;7.24;90.59;98121.34;5012658;28;20026;-64
2021/05/16 04:10:22;;;;;;;17.98;7.13;;;;;;;7.24;90.23;98126.69;5027631;28;20539;-64
2021/05/16 04:12:47;;;;;;;14.27;6.97;;;;;;;7.28;90.68;98139.28;5012878;28;20056;-64
2021/05/16 04:15:13;;;;;;;18.08;6.50;;;;;;;7.30;90.43;98131.03;5012360;28;20033;-64
2021/05/16 04:17:38;;;;;;;16.65;6.55;;;;;;;7.30;90.13;98128.38;5012943;28;20026;-64
2021/05/16 04:20:04;;;;;;;16.00;6.18;;;;;;;7.34;90.12;98127.63;4994561;28;20022;-64
2021/05/16 04:22:30;;;;;;;17.08;6.60;;;;;;;7.51;89.48;98132.06;5012653;28;20397;-64
2021/05/16 04:24:55;;;;;;;14.57;6.07;;;;;;;7.84;88.43;98136.47;5012989;28;20033;-64
2021/05/16 04:27:20;;;;;;;16.65;5.95;;;;;;;7.75;88.00;98132.63;5012184;28;20034;-64
2021/05/16 04:29:46;;;;;;;13.10;5.30;;;;;;;7.82;88.15;98138.56;5012707;28;20272;-64
2021/05/16 04:32:11;;;;;;;17.00;5.97;;;;;;;7.86;87.62;98138.84;5012284;28;20046;-64
2021/05/16 04:34:37;;;;;;;19.58;6.28;;;;;;;7.96;88.06;98145.13;4994981;28;20053;-64
2021/05/16 04:37:02;;;;;;;15.93;6.15;;;;;;;8.19;86.49;98152.00;5012158;28;20042;-64
2021/05/16 04:39:28;;;;;;;10.02;5.68;;;;;;;8.20;86.89;98147.47;5027868;28;20025;-64
2021/05/16 04:41:53;;;;;;;12.23;6.10;;;;;;;8.19;87.30;98144.00;5012113;28;20054;-64
2021/05/16 04:44:18;;;;;;;15.60;5.43;;;;;;;8.29;87.23;98143.28;5012561;28;20030;-64
2021/05/16 04:46:44;;;;;;;16.25;5.72;;;;;;;8.37;87.14;98128.66;5012099;28;20046;-64
2021/05/16 04:49:09;;;;;;;13.75;5.35;;;;;;;8.58;85.83;98135.00;4995145;28;20036;-64
2021/05/16 04:51:35;;;;;;;11.48;5.28;;;;;;;8.49;86.38;98131.22;5012275;28;20038;-64
2021/05/16 04:54:01;;;;;;;16.90;5.60;;;;;;;8.69;86.13;98131.34;5012457;28;20540;-64
2021/05/16 04:56:26;;;;;;;14.60;5.57;;;;;;;8.72;86.12;98138.03;5027304;28;20045;-64
2021/05/16 04:58:52;;;;;;;14.80;6.07;;;;;;;8.83;86.68;98132.50;5012231;28;20018;-64
2021/05/16 05:01:17;;;;;;;14.57;4.93;;;;;;;8.87;85.79;98123.97;5013892;28;20160;-64
2021/05/16 05:03:43;;;;;;;18.08;6.07;;;;;;;8.77;86.11;98114.03;5016419;28;20033;-64
2021/05/16 05:06:08;;;;;;;18.70;5.47;;;;;;;9.92;82.06;98121.97;5031279;28;20094;-64
2021/05/16 05:08:36;;;;;;;9.73;4.10;;;;;;;9.99;80.77;98131.66;5015937;28;20481;-63
2021/05/16 05:11:01;;;;;;;10.73;4.45;;;;;;;11.13;76.39;98134.84;5015896;28;20045;-64
2021/05/16 05:13:26;;;;;;;17.45;5.45;;;;;;;9.76;81.43;98132.91;5016068;28;20018;-63
2021/05/16 05:15:52;;;;;;;13.13;4.80;;;;;;;9.44;83.48;98139.25;5015610;28;20054;-63
2021/05/16 05:18:18;;;;;;;16.40;4.43;;;;;;;9.51;83.73;98137.13;5016026;28;20029;-63
2021/05/16 05:20:46;;;;;;;11.57;5.05;;;;;;;9.06;85.02;98133.97;5030806;28;20041;-63
2021/05/16 05:23:12;;;;;;;11.52;4.00;;;;;;;8.99;86.08;98130.72;5015723;28;20033;-63
2021/05/16 05:25:37;;;;;;;16.30;4.85;;;;;;;8.91;86.78;98125.88;5015563;28;20046;-63
2021/05/16 05:28:03;;;;;;;14.75;5.10;;;;;;;8.95;86.41;98116.25;5015832;28;20350;-63
2021/05/16 05:30:29;;;;;;;13.57;4.75;;;;;;;8.73;86.98;98121.75;4997709;28;20036;-63
2021/05/16 05:32:54;;;;;;;14.13;4.68;;;;;;;8.92;86.66;98126.69;5015629;28;20034;-63
2021/05/16 05:35:20;;;;;;;13.13;5.53;;;;;;;8.63;87.52;98127.00;5013985;28;20054;-64
2021/05/16 05:37:45;;;;;;;15.65;5.28;;;;;;;8.67;87.44;98122.78;5015509;28;20061;-63
2021/05/16 05:40:11;;;;;;;15.30;5.40;;;;;;;8.68;87.29;98124.38;5015218;28;20029;-63
2021/05/16 05:42:37;;;;;;;15.27;4.93;;;;;;;8.73;87.08;98116.41;4998011;28;20036;-63
2021/05/16 05:45:06;;;;;;;11.60;4.60;;;;;;;8.81;87.15;98129.28;5015050;28;20026;-64
2021/05/16 05:47:31;;;;;;;12.15;4.55;;;;;;;8.87;86.67;98116.75;5015546;28;20032;-63
2021/05/16 05:49:57;;;;;;;8.02;3.67;;;;;;;8.85;85.99;98114.34;5014250;28;20022;-63
2021/05/16 05:52:22;;;;;;;14.10;4.45;;;;;;;8.99;86.05;98101.34;5014887;28;20042;-63
2021/05/16 05:54:47;;;;;;;11.73;5.28;;;;;;;9.05;86.59;98107.50;5015399;28;20022;-63
2021/05/16 05:57:13;;;;;;;13.48;4.22;;;;;;;9.02;85.83;98103.47;5014680;28;20034;-64
2021/05/16 05:59:38;;;;;;;15.38;4.20;;;;;;;9.31;84.86;98107.63;5015322;28;20021;-63
2021/05/16 06:02:04;;;;;;;11.55;4.07;;;;;;;9.13;85.46;98108.88;5014718;28;20041;-63
2021/05/16 06:04:30;;;;;;;11.20;3.97;;;;;;;9.36;85.00;98107.63;5015188;28;20393;-63
2021/05/16 06:06:55;;;;;;;10.38;4.32;;;;;;;9.26;85.41;98113.75;5030045;28;20049;-63
2021/05/16 06:09:21;;;;;;;5.95;3.30;;;;;;;9.25;85.97;98114.81;5030181;28;20124;-63
2021/05/16 06:11:46;;;;;;;11.23;3.63;;;;;;;9.16;85.67;98111.84;5014415;28;20412;-64
2021/05/16 06:14:11;;;;;;;11.48;3.90;;;;;;;8.87;86.31;98105.28;5014410;28;20518;-63
2021/05/16 06:16:37;;;;;;;10.95;4.05;;;;;;;8.89;86.43;98103.16;5014437;28;20393;-63
2021/05/16 06:19:03;;;;;;;7.63;3.80;;;;;;;9.10;86.39;98099.50;5014836;28;20026;-64
2021/05/16 06:21:28;;;;;;;12.70;3.60;;;;;;;8.96;86.07;98095.69;5014452;28;20034;-63
2021/05/16 06:26:29;;;;;;;9.98;2.95;;;;;;;9.40;84.40;98104.19;5028619;28;20092;-63
2021/05/16 06:28:54;;;;;;;9.93;3.22;;;;;;;9.57;84.67;98113.88;5014679;28;20033;-63
2021/05/16 06:31:20;;;;;;;13.02;3.08;;;;;;;9.64;83.24;98107.22;4996536;28;20038;-63
2021/05/16 06:33:46;;;;;;;6.35;2.88;;;;;;;9.51;84.68;98105.03;5014449;28;20113;-63
2021/05/16 06:36:11;;;;;;;8.60;2.90;;;;;;;9.65;84.62;98100.78;4996359;28;20090;-63
2021/05/16 06:38:36;;;;;;;10.82;3.58;;;;;;;9.68;83.78;98108.31;4997214;28;20060;-63
2021/05/16 06:41:02;;;;;;;8.55;2.95;;;;;;;9.53;84.54;98102.88;5013747;28;20045;-63
2021/05/16 06:43:27;;;;;;;9.27;2.53;;;;;;;9.41;85.26;98104.97;5014414;28;20022;-63
2021/05/16 06:45:53;;;;;;;7.65;2.80;;;;;;;9.67;85.06;98104.00;5013763;28;20037;-63
2021/05/16 06:48:18;;;;;;;8.43;2.97;;;;;;;9.53;85.08;98097.53;5014317;28;20026;-63
2021/05/16 06:50:44;;;;;;;10.00;2.60;;;;;;;9.56;84.31;98102.38;5029449;28;20489;-63
2021/05/16 06:53:09;;;;;;;9.70;2.50;;;;;;;9.41;84.76;98095.09;5014119;28;20034;-63
2021/05/16 06:55:35;;;;;;;9.02;2.85;;;;;;;9.61;83.61;98105.06;5013741;28;20034;-63
2021/05/16 06:58:01;;;;;;;8.60;2.95;;;;;;;9.76;82.81;98096.28;5014259;28;20021;-63
2021/05/16 07:00:26;;;;;;;6.95;1.98;;;;;;;9.78;82.57;98098.66;5013610;28;20421;-63
2021/05/16 07:02:52;;;;;;;7.53;2.67;;;;;;;9.90;84.60;98101.91;5014455;28;20022;-63
2021/05/16 07:05:17;;;;;;;6.18;2.42;;;;;;;9.66;84.44;98107.75;5013352;28;20033;-63
2021/05/16 07:07:43;;;;;;;8.00;2.47;;;;;;;9.40;86.27;98103.38;5012699;28;20048;-63
2021/05/16 07:10:08;;;;;;;5.82;2.40;;;;;;;9.19;85.27;98103.31;4995669;28;20049;-63
2021/05/16 07:12:34;;;;;;;6.18;2.40;;;;;;;9.25;86.96;98120.97;4996250;28;20032;-63
2021/05/16 07:14:59;;;;;;;6.72;2.80;;;;;;;9.25;86.66;98134.31;5013811;28;20036;-63
2021/05/16 07:17:25;;;;;;;4.75;1.58;;;;;;;8.96;82.70;98128.59;4995824;28;20084;-63
2021/05/16 07:19:50;;;;;;;4.57;1.92;;;;;;;8.88;82.32;98144.28;4996174;28;20485;-64
2021/05/16 07:22:16;;;;;;;4.18;1.60;;;;;;;8.89;83.49;98145.91;5013322;28;20508;-63
2021/05/16 07:24:41;;;;;;;3.30;1.40;;;;;;;8.78;83.68;98145.81;5011895;28;20026;-63
2021/05/16 07:27:06;;;;;;;2.63;1.35;;;;;;;8.55;83.01;98140.84;5013296;28;20413;-63
2021/05/16 07:29:32;;;;;;;4.07;1.58;;;;;;;8.64;83.09;98139.31;4996271;28;20358;-63
2021/05/16 07:31:58;;;;;;;5.05;1.60;;;;;;;8.62;83.48;98142.25;5013153;28;20062;-64
2021/05/16 07:34:23;;;;;;;3.92;1.90;;;;;;;8.73;83.27;98145.78;5013523;28;20483;-64
2021/05/16 07:36:48;;;;;;;2.45;1.38;;;;;;;9.06;82.19;98151.88;5013311;28;20038;-64
2021/05/16 07:39:15;;;;;;;6.35;1.70;;;;;;;9.27;81.25;98142.09;5013719;28;20026;-64
2021/05/16 07:41:41;;;;;;;6.35;1.38;;;;;;;9.36;80.90;98145.06;5012073;28;20041;-64
2021/05/16 07:44:06;;;;;;;5.47;1.52;;;;;;;9.62;79.45;98157.50;5013574;28;20392;-64
2021/05/16 07:46:32;;;;;;;3.25;1.40;;;;;;;9.56;80.78;98150.53;5011579;28;20038;-64
2021/05/16 07:48:57;;;;;;;5.72;1.38;;;;;;;9.42;80.73;98149.38;4995786;28;20018;-64
2021/05/16 07:51:23;;;;;;;2.80;1.30;;;;;;;9.80;78.83;98156.19;5012844;28;20038;-64
2021/05/16 07:53:48;;;;;;;3.40;1.90;;;;;;;13.17;67.00;98156.84;5013374;28;20026;-64
2021/05/16 07:56:13;;;;;;;5.38;1.58;;;;;;;17.18;56.63;98167.44;5012848;28;20459;-64
2021/05/16 07:58:39;;;;;;;3.67;1.42;;;;;;;17.14;55.50;98163.75;4995730;28;20025;-64
2021/05/16 08:01:04;;;;;;;3.17;1.33;;;;;;;17.92;52.55;98155.09;5011814;28;20038;-64
2021/05/16 08:03:30;;;;;;;4.70;1.55;;;;;;;19.12;49.35;98158.88;5013031;28;20041;-64
2021/05/16 08:05:57;;;;;;;4.65;1.60;;;;;;;17.86;52.94;98157.16;5011789;28;20040;-64
2021/05/16 08:08:22;;;;;;;3.85;1.60;;;;;;;18.09;51.07;98163.25;5013006;28;20041;-64
2021/05/16 08:10:48;;;;;;;4.78;1.42;;;;;;;17.50;52.69;98157.34;5012757;28;20026;-64
2021/05/16 08:13:13;;;;;;;7.82;1.70;;;;;;;17.79;51.47;98156.78;4995413;28;20451;-64
2021/05/16 08:15:39;;;;;;;4.05;1.67;;;;;;;18.79;49.44;98157.81;5012794;28;20045;-64
2021/05/16 08:18:04;;;;;;;6.97;1.73;;;;;;;18.29;49.58;98148.25;5013003;28;20026;-64
2021/05/16 08:20:31;;;;;;;5.43;1.70;;;;;;;18.27;48.98;98154.03;5012816;28;20050;-64
2021/05/16 08:22:56;;;;;;;4.18;1.45;;;;;;;18.57;47.93;98159.59;4995607;28;20033;-63
2021/05/16 08:25:22;;;;;;;4.82;1.60;;;;;;;19.24;46.15;98152.72;5012654;28;20084;-64
2021/05/16 08:27:47;;;;;;;4.75;1.58;;;;;;;19.11;46.73;98151.81;5012973;28;20026;-64
2021/05/16 08:30:13;;;;;;;3.17;1.50;;;;;;;19.41;44.56;98157.31;5012491;28;20034;-64
2021/05/16 08:32:38;;;;;;;5.40;1.88;;;;;;;17.96;48.97;98156.06;5012779;28;20095;-63
2021/05/16 08:35:04;;;;;;;4.97;1.80;;;;;;;17.30;51.48;98154.09;5012319;28;20033;-63
2021/05/16 08:37:30;;;;;;;3.90;1.50;;;;;;;17.38;51.71;98147.91;5016804;28;20034;-63
2021/05/16 08:39:55;;;;;;;3.00;1.42;;;;;;;18.04;49.13;98149.84;5014638;28;20072;-63
2021/05/16 08:42:21;;;;;;;4.00;1.60;;;;;;;18.06;48.94;98151.13;5026410;28;20030;-63
2021/05/16 08:44:46;;;;;;;5.18;1.83;;;;;;;18.53;47.75;98151.28;5006370;28;20074;-63
2021/05/16 08:47:13;;;;;;;6.03;1.70;;;;;;;16.94;50.59;98144.22;4979142;28;20057;-63
2021/05/16 08:49:38;;;;;;;6.75;1.80;;;;;;;16.51;52.69;98147.44;4979596;28;20027;-63
2021/05/16 08:52:04;;;;;;;5.82;1.70;;;;;;;15.78;55.15;98146.66;4996516;28;20034;-63
2021/05/16 08:54:30;;;;;;;7.05;1.90;;;;;;;14.54;59.74;98143.81;4996743;28;20089;-63
2021/05/16 08:56:55;;;;;;;3.97;1.60;;;;;;;14.13;61.85;98147.13;4996491;28;20034;-62
2021/05/16 08:59:21;;;;;;;6.13;1.95;;;;;;;13.40;64.82;98137.56;4996804;28;20077;-62
2021/05/16 09:01:47;;;;;;;7.38;2.03;;;;;;;15.73;57.93;98152.97;4978741;28;20493;-63
2021/05/16 09:04:19;;;;;;;5.43;1.90;;;;;;;16.93;53.49;98148.03;4996782;28;20373;-63
2021/05/16 09:06:45;;;;;;;9.27;1.80;;;;;;;17.99;49.40;98150.00;4996333;28;20038;-63
2021/05/16 09:09:31;;;;;;;5.13;1.52;;;;;;;18.22;48.27;98142.50;5014261;28;20045;-62
2021/05/16 09:11:58;;;;;;;7.22;1.75;;;;;;;17.34;51.47;98141.53;5015710;28;20046;-63
2021/05/16 09:14:49;;;;;;;5.78;1.95;;;;;;;16.72;50.87;98147.72;5016234;28;20507;-62
2021/05/16 09:17:33;;;;;;;5.95;1.85;;;;;;;17.13;49.16;98154.81;5015760;28;20042;-64
2021/05/16 09:20:10;;;;;;;8.10;1.77;;;;;;;17.35;49.27;98148.56;5016178;28;20303;-63
2021/05/16 09:22:43;;;;;;;5.07;1.80;;;;;;;17.34;48.59;98141.53;4998434;28;20100;-63
2021/05/16 09:25:14;;;;;;;4.72;1.35;;;;;;;15.38;53.93;98143.66;5015476;28;20060;-63
2021/05/16 09:27:40;;;;;;;5.78;1.70;;;;;;;14.54;57.01;98146.50;5015893;28;20022;-63
2021/05/16 09:30:18;;;;;;;6.90;1.80;;;;;;;14.58;58.20;98145.63;5015605;28;20026;-63
2021/05/16 09:32:53;;;;;;;5.75;1.80;;;;;;;15.08;57.34;98148.53;5015724;28;20026;-63
2021/05/16 09:35:29;;;;;;;5.53;2.05;;;;;;;15.53;57.06;98156.84;5015331;28;20030;-62
2021/05/16 09:38:06;;;;;;;4.30;1.85;;;;;;;17.42;50.32;98159.72;5016003;28;20026;-62
2021/05/16 09:40:33;;;;;;;5.60;1.50;;;;;;;17.48;49.44;98167.72;5015431;28;20041;-62
2021/05/16 09:43:09;;;;;;;4.10;1.30;;;;;;;17.19;48.76;98172.53;5015633;28;20022;-62
2021/05/16 09:45:49;;;;;;;3.92;1.38;;;;;;;17.35;48.88;98167.50;5015046;28;20501;-63
2021/05/16 09:48:17;;;;;;;5.20;1.60;;;;;;;17.00;50.02;98164.63;5014676;28;20030;-62
2021/05/16 09:50:43;;;;;;;5.63;1.50;;;;;;;18.16;46.80;98154.66;5015045;28;20460;-63
2021/05/16 09:53:10;;;;;;;3.88;1.60;;;;;;;18.65;46.30;98158.78;5015480;28;20018;-63
2021/05/16 09:55:37;;;;;;;6.50;1.80;;;;;;;17.49;46.43;98150.34;5014891;28;20062;-64
2021/05/16 09:58:02;;;;;;;5.93;1.75;;;;;;;16.97;48.29;98150.91;5015336;28;20026;-63
2021/05/16 10:00:28;;;;;;;4.70;1.60;;;;;;;16.88;48.75;98144.66;4997352;28;20045;-63
2021/05/16 10:02:53;;;;;;;3.28;1.50;;;;;;;17.18;48.89;98149.28;5015309;28;20021;-63
2021/05/16 10:05:19;;;;;;;6.45;1.88;;;;;;;16.28;51.45;98138.50;5015054;28;20037;-63
2021/05/16 10:07:44;;;;;;;6.18;1.67;;;;;;;15.64;51.55;98140.44;5015416;28;20026;-62
2021/05/16 10:10:13;;;;;;;2.65;1.13;;;;;;;14.23;54.38;98130.78;5014781;28;20049;-62
2021/05/16 10:12:41;;;;;;;2.15;1.13;;;;;;;14.29;56.90;98129.59;5015089;28;20022;-62
2021/05/16 10:15:07;;;;;;;1.02;0.93;;;;;;;14.12;55.77;98138.22;5014485;28;20057;-62
2021/05/16 10:17:34;;;;;;;3.47;1.42;;;;;;;15.29;52.95;98143.53;5015006;28;20056;-62
2021/05/16 10:20:03;;;;;;;4.00;0.90;;;;;;;16.85;48.64;98145.28;5030397;28;20034;-63
2021/05/16 10:22:28;;;;;;;1.98;0.80;;;;;;;17.27;46.94;98135.75;5014809;28;20042;-62
2021/05/16 10:24:54;;;;;;;2.97;1.02;;;;;;;16.04;49.98;98138.78;5014956;28;20018;-62
2021/05/16 10:27:21;;;;;;;1.95;1.20;;;;;;;16.32;50.24;98139.47;5014454;28;20034;-62
2021/05/16 10:29:55;;;;;;;2.70;1.25;;;;;;;16.13;49.69;98138.88;5014933;28;20030;-62
2021/05/16 10:32:36;;;;;;;3.97;1.60;;;;;;;16.24;50.54;98136.72;5014389;28;20164;-62
2021/05/16 10:35:02;;;;;;;4.85;1.45;;;;;;;15.48;52.83;98124.53;5014143;28;20030;-62
2021/05/16 10:37:37;;;;;;;4.88;1.60;;;;;;;15.91;51.96;98118.00;4997127;28;20192;-62
2021/05/16 10:40:07;;;;;;;5.32;1.60;;;;;;;16.05;53.10;98113.38;5014470;28;20030;-61
2021/05/16 10:42:37;;;;;;;3.83;1.45;;;;;;;16.06;51.32;98117.66;5014832;28;20388;-62
2021/05/16 10:45:08;;;;;;;4.68;1.50;;;;;;;16.36;50.16;98107.22;5014336;28;20034;-63
2021/05/16 10:47:43;;;;;;;5.75;1.48;;;;;;;16.93;49.76;98104.72;5013341;28;20026;-62
2021/05/16 10:50:12;;;;;;;6.43;1.50;;;;;;;16.52;51.53;98104.94;5013795;28;20030;-63
2021/05/16 10:52:37;;;;;;;5.85;1.52;;;;;;;16.08;51.85;98106.56;5029926;28;20113;-62
2021/05/16 10:55:04;;;;;;;4.45;1.70;;;;;;;15.89;51.99;98098.59;5013789;28;20025;-62
2021/05/16 10:57:36;;;;;;;6.63;2.10;;;;;;;16.39;49.10;98090.38;5014384;28;20056;-62
2021/05/16 11:00:20;;;;;;;3.80;1.50;;;;;;;15.52;56.57;98085.06;5013518;28;20037;-63
2021/05/16 11:03:05;;;;;;;5.13;2.00;;;;;;;15.48;62.17;98092.16;5014201;28;20033;-63
2021/05/16 11:05:51;;;;;;;3.60;1.50;;;;;;;16.31;57.60;98074.91;5013953;28;20046;-62
2021/05/16 11:08:19;;;;;;;6.07;1.52;;;;;;;16.20;57.66;98076.25;5014024;28;20046;-62
2021/05/16 11:10:52;;;;;;;6.55;1.70;;;;;;;16.53;57.75;98069.50;5013543;28;20042;-62
2021/05/16 11:13:26;;;;;;;6.10;1.83;;;;;;;16.56;54.66;98068.84;4996603;28;20026;-62
2021/05/16 11:16:03;;;;;;;6.45;1.80;;;;;;;17.15;53.28;98057.06;5013011;28;20053;-62
2021/05/16 11:18:29;;;;;;;7.60;1.92;;;;;;;17.15;50.82;98048.94;5014009;28;20473;-62
2021/05/16 11:20:55;;;;;;;6.70;2.10;;;;;;;17.87;49.44;98056.56;5012326;28;20118;-62
2021/05/16 11:23:27;;;;;;;6.95;1.75;;;;;;;16.52;51.88;98048.94;5013700;28;20469;-62
2021/05/16 11:25:56;;;;;;;12.23;2.08;;;;;;;17.01;50.67;98046.34;5013525;28;20034;-62
2021/05/16 11:28:23;;;;;;;8.75;2.15;;;;;;;16.63;48.02;98051.41;5013920;28;20033;-62
2021/05/16 11:30:49;;;;;;;6.43;1.60;;;;;;;15.92;47.93;98047.44;5013118;28;20038;-63
2021/05/16 11:33:48;;;;;;;4.70;1.60;;;;;;;17.23;47.31;98037.34;5013722;28;20503;-62
2021/05/16 11:36:15;;;;;;;9.10;2.10;;;;;;;17.58;47.54;98029.25;4990785;28;20118;-62
2021/05/16 11:38:46;;;;;;;6.18;1.80;;;;;;;18.44;45.17;98041.19;4996025;28;20032;-63